Time;durP1;ratioP1;P1;durP2;ratioP2;P2;SDS_P1;SDS_P2;PMS_P1;PMS_P2;Temp;Humidity;BMP_temperature;BMP_pressure;BME280_temperature;BME280_humidity;BME280_pressure;Samples;Min_cycle;Max_cycle;Signal;HPM_P1;HPM_P2
2022/01/27 00:00:58;;;;;;;81.43;34.10;;;;;;;;;;5094310;28;20207;-68
2022/01/27 00:03:24;;;;;;;79.88;33.03;;;;;;;;;;5093566;28;20190;-68
2022/01/27 00:06:00;;;;;;;85.00;32.85;;;;;;;;;;5094001;28;20626;-68
2022/01/27 00:08:41;;;;;;;81.60;33.20;;;;;;;;;;5093997;28;20602;-69
2022/01/27 00:11:15;;;;;;;90.88;34.45;;;;;;;;;;5093967;28;20227;-68
2022/01/27 00:14:17;;;;;;;85.13;34.95;;;;;;;;;;5093915;28;20166;-68
2022/01/27 00:16:40;;;;;;;79.60;32.88;;;;;;;;;;5091841;28;20206;-68
2022/01/27 00:19:06;;;;;;;83.85;34.88;;;;;;;;;;5093629;28;20266;-69
2022/01/27 00:21:33;;;;;;;78.82;33.60;;;;;;;;;;5093874;28;20171;-67
2022/01/27 00:23:59;;;;;;;81.32;33.20;;;;;;;;;;5093167;28;20204;-68
2022/01/27 00:26:25;;;;;;;82.78;32.08;;;;;;;;;;5093686;28;20167;-68
2022/01/27 00:28:51;;;;;;;74.05;33.90;;;;;;;;;;5093676;28;20175;-67
2022/01/27 00:31:18;;;;;;;78.00;32.33;;;;;;;;;;5093696;28;20190;-66
2022/01/27 00:33:45;;;;;;;82.07;32.72;;;;;;;;;;5092364;28;20191;-67
2022/01/27 00:36:12;;;;;;;78.82;32.92;;;;;;;;;;5093922;28;20214;-67
2022/01/27 00:38:38;;;;;;;84.90;34.85;;;;;;;;;;5093486;28;20641;-69
2022/01/27 00:41:04;;;;;;;81.40;34.17;;;;;;;;;;5093656;28;20171;-69
2022/01/27 00:43:30;;;;;;;72.90;32.33;;;;;;;;;;5093426;28;20191;-69
2022/01/27 00:45:56;;;;;;;75.25;32.45;;;;;;;;;;5093866;28;20178;-69
2022/01/27 00:48:22;;;;;;;72.05;32.95;;;;;;;;;;5093854;28;20167;-70
2022/01/27 00:50:54;;;;;;;82.33;32.83;;;;;;;;;;5093538;28;20167;-69
2022/01/27 00:53:40;;;;;;;78.93;32.40;;;;;;;;;;5093468;28;20441;-70
2022/01/27 00:56:19;;;;;;;82.13;33.10;;;;;;;;;;5093373;28;20681;-68
2022/01/27 01:01:15;;;;;;;82.07;33.07;;;;;;;;;;5093424;28;20676;-67
2022/01/27 01:03:45;;;;;;;79.75;33.38;;;;;;;;;;5093399;28;20812;-67
2022/01/27 01:16:14;;;;;;;89.93;35.87;;;;;;;;;;5093677;28;20171;-69
2022/01/27 01:19:02;;;;;;;95.97;35.72;;;;;;;;;;5093349;28;20475;-68
2022/01/27 01:21:56;;;;;;;82.88;33.92;;;;;;;;;;5093331;28;20172;-68
2022/01/27 01:32:31;;;;;;;83.13;35.13;;;;;;;;;;5093460;28;20163;-68
2022/01/27 01:34:59;;;;;;;76.10;32.10;;;;;;;;;;5096256;28;20224;-68
2022/01/27 01:37:25;;;;;;;85.00;35.05;;;;;;;;;;5097131;28;20250;-68
2022/01/27 01:39:51;;;;;;;84.40;35.05;;;;;;;;;;5097062;28;20240;-68
2022/01/27 01:42:17;;;;;;;80.77;33.77;;;;;;;;;;5096762;28;20170;-68
2022/01/27 01:44:45;;;;;;;80.63;33.30;;;;;;;;;;5096799;28;20517;-68
2022/01/27 01:47:11;;;;;;;89.70;35.65;;;;;;;;;;5096798;28;20155;-68
2022/01/27 01:49:37;;;;;;;76.78;33.65;;;;;;;;;;5096962;28;20163;-68
2022/01/27 01:52:05;;;;;;;88.80;34.10;;;;;;;;;;5096645;28;20167;-67
2022/01/27 01:54:32;;;;;;;80.10;34.08;;;;;;;;;;5096591;28;20405;-68
2022/01/27 01:56:58;;;;;;;80.47;34.47;;;;;;;;;;5096489;28;20168;-68
2022/01/27 01:59:24;;;;;;;84.93;36.78;;;;;;;;;;5096355;28;20670;-68
2022/01/27 02:01:50;;;;;;;83.88;35.65;;;;;;;;;;5096376;28;20259;-68
2022/01/27 02:04:16;;;;;;;83.72;36.40;;;;;;;;;;5096719;28;20171;-68
2022/01/27 02:06:49;;;;;;;90.45;35.33;;;;;;;;;;5096609;28;20194;-68
2022/01/27 02:20:11;;;;;;;81.60;35.13;;;;;;;;;;5096056;28;20641;-67
2022/01/27 02:22:38;;;;;;;79.88;33.72;;;;;;;;;;5096031;28;20566;-68
2022/01/27 02:25:04;;;;;;;84.85;35.00;;;;;;;;;;5096034;28;20167;-69
2022/01/27 02:27:30;;;;;;;88.05;34.85;;;;;;;;;;5095968;28;20251;-68
2022/01/27 02:29:56;;;;;;;77.15;34.22;;;;;;;;;;5095879;28;20626;-68
2022/01/27 02:32:24;;;;;;;82.47;32.30;;;;;;;;;;5095971;28;20309;-69
2022/01/27 02:34:53;;;;;;;70.75;32.92;;;;;;;;;;5095855;28;20159;-68
2022/01/27 02:37:19;;;;;;;66.47;31.00;;;;;;;;;;5096102;28;20228;-68
2022/01/27 02:39:45;;;;;;;66.55;30.70;;;;;;;;;;5095737;28;20245;-68
2022/01/27 02:42:25;;;;;;;64.83;30.03;;;;;;;;;;5095833;28;20199;-68
2022/01/27 02:45:11;;;;;;;67.07;31.83;;;;;;;;;;5095207;28;20446;-68
2022/01/27 02:47:37;;;;;;;61.28;29.17;;;;;;;;;;5095255;28;20228;-68
2022/01/27 02:50:04;;;;;;;71.82;32.42;;;;;;;;;;5094342;28;20286;-68
2022/01/27 02:52:30;;;;;;;62.80;30.02;;;;;;;;;;5095487;28;20167;-68
2022/01/27 02:54:56;;;;;;;64.30;30.40;;;;;;;;;;5095552;28;20541;-67
2022/01/27 02:57:23;;;;;;;58.37;29.37;;;;;;;;;;5095442;28;20416;-67
2022/01/27 02:59:49;;;;;;;64.50;30.55;;;;;;;;;;5095551;28;20500;-68
2022/01/27 03:02:16;;;;;;;64.32;29.50;;;;;;;;;;5095536;28;20502;-68
2022/01/27 03:04:42;;;;;;;69.30;32.40;;;;;;;;;;5095323;28;20170;-68
2022/01/27 03:07:08;;;;;;;57.33;28.80;;;;;;;;;;5095251;28;20225;-68
2022/01/27 03:09:35;;;;;;;65.40;29.38;;;;;;;;;;5095386;28;20224;-68
2022/01/27 03:12:08;;;;;;;64.90;29.67;;;;;;;;;;5095081;28;20258;-67
2022/01/27 03:14:34;;;;;;;64.63;29.88;;;;;;;;;;5095363;28;20564;-68
2022/01/27 03:17:01;;;;;;;62.30;28.98;;;;;;;;;;5095234;28;20174;-68
2022/01/27 03:19:28;;;;;;;67.72;29.90;;;;;;;;;;5094861;28;20717;-68
2022/01/27 03:21:54;;;;;;;64.78;29.15;;;;;;;;;;5095215;28;20175;-68
2022/01/27 03:24:21;;;;;;;54.33;27.17;;;;;;;;;;5095103;28;20193;-68
2022/01/27 03:26:48;;;;;;;57.00;27.85;;;;;;;;;;5095137;28;20225;-68
2022/01/27 03:29:16;;;;;;;54.97;28.10;;;;;;;;;;5094848;28;20658;-67
2022/01/27 03:31:42;;;;;;;67.43;29.73;;;;;;;;;;5094774;28;20181;-68
2022/01/27 03:34:08;;;;;;;62.70;29.73;;;;;;;;;;5094690;28;20177;-68
2022/01/27 03:36:34;;;;;;;66.90;28.70;;;;;;;;;;5094563;28;20273;-68
2022/01/27 03:39:00;;;;;;;53.83;27.40;;;;;;;;;;5094641;28;20453;-68
2022/01/27 03:41:31;;;;;;;55.33;27.98;;;;;;;;;;5094551;28;20410;-68
2022/01/27 03:43:57;;;;;;;58.17;26.52;;;;;;;;;;5094767;28;20246;-68
2022/01/27 03:46:23;;;;;;;61.22;29.38;;;;;;;;;;5094412;28;20265;-68
2022/01/27 03:48:49;;;;;;;52.65;25.80;;;;;;;;;;5094390;28;20686;-68
2022/01/27 03:51:16;;;;;;;55.90;26.03;;;;;;;;;;5094390;28;20249;-68
2022/01/27 03:53:42;;;;;;;57.65;28.70;;;;;;;;;;5093080;28;20406;-68
2022/01/27 03:56:08;;;;;;;65.80;27.65;;;;;;;;;;5094200;28;20213;-68
2022/01/27 03:58:34;;;;;;;65.55;27.02;;;;;;;;;;5094496;28;20174;-68
2022/01/27 04:01:04;;;;;;;62.78;26.30;;;;;;;;;;5094083;28;20203;-68
2022/01/27 04:03:32;;;;;;;62.38;28.05;;;;;;;;;;5094210;28;20167;-68
2022/01/27 04:06:05;;;;;;;57.80;25.45;;;;;;;;;;5094294;28;20254;-67
2022/01/27 04:08:31;;;;;;;58.08;27.00;;;;;;;;;;5094119;28;20204;-68
2022/01/27 04:10:57;;;;;;;55.07;26.97;;;;;;;;;;5094009;28;20167;-68
2022/01/27 04:13:23;;;;;;;58.83;26.93;;;;;;;;;;5093975;28;20408;-68
2022/01/27 04:15:49;;;;;;;62.80;28.88;;;;;;;;;;5093958;28;20427;-68
2022/01/27 04:18:15;;;;;;;61.88;28.00;;;;;;;;;;5093749;28;20246;-67
2022/01/27 04:20:42;;;;;;;63.15;26.88;;;;;;;;;;5093858;28;20210;-68
2022/01/27 04:23:08;;;;;;;65.75;28.45;;;;;;;;;;5093898;28;20167;-68
2022/01/27 04:25:37;;;;;;;58.20;26.45;;;;;;;;;;5094002;28;20267;-68
2022/01/27 04:28:06;;;;;;;67.47;28.52;;;;;;;;;;5094113;28;20250;-68
2022/01/27 04:30:32;;;;;;;64.63;28.48;;;;;;;;;;5093749;28;20179;-68
2022/01/27 04:33:01;;;;;;;64.30;28.75;;;;;;;;;;5094058;28;20534;-68
2022/01/27 04:35:33;;;;;;;61.55;27.75;;;;;;;;;;5093986;28;20531;-68
2022/01/27 04:49:02;;;;;;;55.60;25.00;;;;;;;;;;5051235;28;20291;-68
2022/01/27 04:51:29;;;;;;;64.78;27.35;;;;;;;;;;5051282;28;20164;-68
2022/01/27 04:56:29;;;;;;;66.55;28.10;;;;;;;;;;5093493;28;20163;-68
2022/01/27 04:59:00;;;;;;;71.50;30.23;;;;;;;;;;5093619;28;20179;-67
2022/01/27 05:01:42;;;;;;;67.43;28.27;;;;;;;;;;5093387;28;20626;-68
2022/01/27 05:04:13;;;;;;;67.18;28.80;;;;;;;;;;5093446;28;20179;-68
2022/01/27 05:06:39;;;;;;;62.75;28.23;;;;;;;;;;5093388;28;20614;-68
2022/01/27 05:09:05;;;;;;;64.70;26.90;;;;;;;;;;5095190;28;20194;-68
2022/01/27 05:11:35;;;;;;;59.67;25.85;;;;;;;;;;5097460;28;20622;-68
2022/01/27 05:14:23;;;;;;;71.03;27.33;;;;;;;;;;5097309;28;20653;-68
2022/01/27 05:16:49;;;;;;;62.15;25.77;;;;;;;;;;5097435;28;20177;-68
2022/01/27 05:19:15;;;;;;;64.22;26.60;;;;;;;;;;5095778;28;20219;-67
2022/01/27 05:21:41;;;;;;;67.82;28.52;;;;;;;;;;5097241;28;20535;-67
2022/01/27 05:24:08;;;;;;;60.20;25.05;;;;;;;;;;5097209;28;20630;-67
2022/01/27 05:26:35;;;;;;;61.67;25.80;;;;;;;;;;5097432;28;20182;-67
2022/01/27 05:29:04;;;;;;;71.28;31.05;;;;;;;;;;5097106;28;20665;-68
2022/01/27 05:31:30;;;;;;;54.13;25.33;;;;;;;;;;5097024;28;20206;-67
2022/01/27 05:33:56;;;;;;;58.60;24.92;;;;;;;;;;5096960;28;20163;-67
2022/01/27 05:36:23;;;;;;;64.40;25.20;;;;;;;;;;5097035;28;20171;-67
2022/01/27 05:38:49;;;;;;;62.45;26.63;;;;;;;;;;5096830;28;20414;-67
2022/01/27 05:41:15;;;;;;;59.03;25.67;;;;;;;;;;5096819;28;20183;-67
2022/01/27 05:43:41;;;;;;;59.63;26.75;;;;;;;;;;5096800;28;20167;-68
2022/01/27 05:46:07;;;;;;;64.07;26.25;;;;;;;;;;5097073;28;20167;-67
2022/01/27 05:48:33;;;;;;;59.37;25.20;;;;;;;;;;5096809;28;20536;-67
2022/01/27 05:50:59;;;;;;;62.33;26.97;;;;;;;;;;5096701;28;20412;-67
2022/01/27 05:53:26;;;;;;;55.03;25.05;;;;;;;;;;5096896;28;20437;-67
2022/01/27 05:55:52;;;;;;;57.85;26.90;;;;;;;;;;5095252;28;20266;-67
2022/01/27 05:58:19;;;;;;;56.47;24.10;;;;;;;;;;5096583;28;20175;-67
2022/01/27 06:00:45;;;;;;;64.53;26.67;;;;;;;;;;5096425;28;20202;-67
2022/01/27 06:03:11;;;;;;;56.72;24.70;;;;;;;;;;5096507;28;20195;-67
2022/01/27 06:05:37;;;;;;;56.97;24.42;;;;;;;;;;5096673;28;20224;-67
2022/01/27 06:08:03;;;;;;;61.42;26.52;;;;;;;;;;5096349;28;20254;-67
2022/01/27 06:10:29;;;;;;;55.88;24.77;;;;;;;;;;5096319;28;20619;-67
2022/01/27 06:12:56;;;;;;;51.95;24.20;;;;;;;;;;5096236;28;20254;-67
2022/01/27 06:15:23;;;;;;;58.70;26.58;;;;;;;;;;5096284;28;20205;-68
2022/01/27 06:17:49;;;;;;;60.28;26.90;;;;;;;;;;5096133;28;20222;-67
2022/01/27 06:20:16;;;;;;;50.97;24.58;;;;;;;;;;5094742;28;20203;-67
2022/01/27 06:22:42;;;;;;;59.17;26.02;;;;;;;;;;5096406;28;20167;-67
2022/01/27 06:25:08;;;;;;;60.55;25.25;;;;;;;;;;5096009;28;20171;-66
2022/01/27 06:27:35;;;;;;;55.13;25.23;;;;;;;;;;5095974;28;20520;-67
2022/01/27 06:30:01;;;;;;;51.88;23.92;;;;;;;;;;5096054;28;20163;-67
2022/01/27 06:32:26;;;;;;;58.60;25.67;;;;;;;;;;5095891;28;20607;-67
2022/01/27 06:34:52;;;;;;;56.40;25.40;;;;;;;;;;5096254;28;20401;-67
2022/01/27 06:37:18;;;;;;;57.10;25.00;;;;;;;;;;5096105;28;20397;-68
2022/01/27 06:39:44;;;;;;;52.87;24.80;;;;;;;;;;5095684;28;20473;-67
2022/01/27 06:42:10;;;;;;;49.15;23.77;;;;;;;;;;5095894;28;20393;-67
2022/01/27 06:44:37;;;;;;;54.05;23.25;;;;;;;;;;5095843;28;20171;-67
2022/01/27 06:47:03;;;;;;;53.88;24.15;;;;;;;;;;5095593;28;20174;-67
2022/01/27 06:49:29;;;;;;;52.58;24.77;;;;;;;;;;5095589;28;20639;-67
2022/01/27 06:51:55;;;;;;;51.50;22.77;;;;;;;;;;5095501;28;20163;-67
2022/01/27 06:54:21;;;;;;;47.70;23.53;;;;;;;;;;5095496;28;20765;-67
2022/01/27 06:56:47;;;;;;;45.63;21.42;;;;;;;;;;5094125;28;20417;-68
2022/01/27 06:59:13;;;;;;;48.75;21.42;;;;;;;;;;5095269;28;20691;-67
2022/01/27 07:01:39;;;;;;;46.80;21.90;;;;;;;;;;5095335;28;20638;-67
2022/01/27 07:04:06;;;;;;;45.60;21.52;;;;;;;;;;5095654;28;20574;-67
2022/01/27 07:06:33;;;;;;;42.80;21.90;;;;;;;;;;5095260;28;20174;-67
2022/01/27 07:08:59;;;;;;;43.47;20.85;;;;;;;;;;5095475;28;20224;-70
2022/01/27 07:11:25;;;;;;;45.77;21.97;;;;;;;;;;5095169;28;20628;-67
2022/01/27 07:13:51;;;;;;;44.90;22.97;;;;;;;;;;5095191;28;20405;-68
2022/01/27 07:16:17;;;;;;;52.47;26.90;;;;;;;;;;5095273;28;20404;-69
2022/01/27 07:18:43;;;;;;;52.05;27.80;;;;;;;;;;5094837;28;20464;-70
2022/01/27 07:21:09;;;;;;;33.40;19.65;;;;;;;;;;5094935;28;20182;-70
2022/01/27 07:23:35;;;;;;;40.78;21.98;;;;;;;;;;5094915;28;20206;-71
2022/01/27 07:26:02;;;;;;;50.45;22.20;;;;;;;;;;5094834;28;20209;-72
2022/01/27 07:28:28;;;;;;;39.60;20.88;;;;;;;;;;5094844;28;20171;-70
2022/01/27 07:30:53;;;;;;;41.93;21.70;;;;;;;;;;5094536;28;20179;-69
2022/01/27 07:33:19;;;;;;;41.97;21.63;;;;;;;;;;5094359;28;20406;-70
2022/01/27 07:35:45;;;;;;;42.58;20.83;;;;;;;;;;5094594;28;20454;-69
2022/01/27 07:38:11;;;;;;;38.20;21.00;;;;;;;;;;5094702;28;20171;-69
2022/01/27 07:40:37;;;;;;;48.22;23.35;;;;;;;;;;5094547;28;20460;-68
2022/01/27 07:43:03;;;;;;;51.50;21.37;;;;;;;;;;5093303;28;20212;-68
2022/01/27 07:45:29;;;;;;;40.27;21.73;;;;;;;;;;5094543;28;20900;-69
2022/01/27 07:47:57;;;;;;;42.92;21.60;;;;;;;;;;5094746;28;20492;-69
2022/01/27 07:50:28;;;;;;;45.50;22.40;;;;;;;;;;5094487;28;20567;-71
2022/01/27 07:52:54;;;;;;;53.88;31.70;;;;;;;;;;5093953;28;20401;-66
2022/01/27 07:55:20;;;;;;;36.85;20.35;;;;;;;;;;5093018;28;20600;-65
2022/01/27 07:57:46;;;;;;;40.05;21.17;;;;;;;;;;5094316;28;20163;-68
2022/01/27 08:00:13;;;;;;;38.50;20.57;;;;;;;;;;5094206;28;20734;-66
2022/01/27 08:02:39;;;;;;;35.95;19.63;;;;;;;;;;5094522;28;20485;-66
2022/01/27 08:05:05;;;;;;;36.28;19.00;;;;;;;;;;5094338;28;20671;-67
2022/01/27 08:07:31;;;;;;;34.67;18.75;;;;;;;;;;5094440;28;20171;-67
2022/01/27 08:09:57;;;;;;;32.28;18.88;;;;;;;;;;5094017;28;20174;-66
2022/01/27 08:12:23;;;;;;;28.53;17.50;;;;;;;;;;5094170;28;20582;-66
2022/01/27 08:14:49;;;;;;;32.60;18.80;;;;;;;;;;5094242;28;20447;-65
2022/01/27 08:17:17;;;;;;;37.45;18.85;;;;;;;;;;5094237;28;20492;-66
2022/01/27 08:19:43;;;;;;;32.78;17.60;;;;;;;;;;5093885;28;20295;-64
2022/01/27 08:22:10;;;;;;;31.92;18.30;;;;;;;;;;5094151;28;20282;-65
2022/01/27 08:24:36;;;;;;;42.35;19.70;;;;;;;;;;5093895;28;20175;-65
2022/01/27 08:27:05;;;;;;;39.35;18.83;;;;;;;;;;5093871;28;20167;-64
2022/01/27 08:29:40;;;;;;;29.25;16.70;;;;;;;;;;5093874;28;20163;-64
2022/01/27 08:32:07;;;;;;;28.33;16.23;;;;;;;;;;5093775;28;20155;-64
2022/01/27 08:34:41;;;;;;;29.23;17.25;;;;;;;;;;5093619;28;20679;-64
2022/01/27 08:37:12;;;;;;;29.90;17.75;;;;;;;;;;5093553;28;20155;-64
2022/01/27 08:39:38;;;;;;;26.63;16.35;;;;;;;;;;5093811;28;20293;-65
2022/01/27 08:42:05;;;;;;;29.20;17.55;;;;;;;;;;5093718;28;20582;-65
2022/01/27 08:44:31;;;;;;;25.42;15.32;;;;;;;;;;5092848;28;20291;-65
2022/01/27 08:46:57;;;;;;;25.83;17.40;;;;;;;;;;5093518;28;20561;-65
2022/01/27 08:49:26;;;;;;;31.63;17.10;;;;;;;;;;5093564;28;20167;-65
2022/01/27 08:51:52;;;;;;;28.45;17.17;;;;;;;;;;5092183;28;20269;-65
2022/01/27 08:54:18;;;;;;;27.63;16.90;;;;;;;;;;5093446;28;20627;-65
2022/01/27 08:56:44;;;;;;;24.55;16.58;;;;;;;;;;5093387;28;20240;-66
2022/01/27 08:59:10;;;;;;;27.40;16.65;;;;;;;;;;5093324;28;20197;-65
2022/01/27 09:01:38;;;;;;;28.77;16.98;;;;;;;;;;5093545;28;20186;-65
2022/01/27 09:04:04;;;;;;;24.25;16.05;;;;;;;;;;5093664;28;20174;-65
2022/01/27 09:06:30;;;;;;;26.73;16.45;;;;;;;;;;5093426;28;20175;-65
2022/01/27 09:08:58;;;;;;;28.63;16.35;;;;;;;;;;5093262;28;20175;-66
2022/01/27 09:11:24;;;;;;;27.23;17.23;;;;;;;;;;5092092;28;20654;-66
2022/01/27 09:13:53;;;;;;;25.20;15.73;;;;;;;;;;5093325;28;20163;-66
2022/01/27 09:16:19;;;;;;;27.55;16.60;;;;;;;;;;5093181;28;20159;-65
2022/01/27 09:18:45;;;;;;;32.95;19.20;;;;;;;;;;5092989;28;20652;-65
2022/01/27 09:21:18;;;;;;;26.73;16.25;;;;;;;;;;5093186;28;20244;-66
2022/01/27 09:23:44;;;;;;;28.25;16.67;;;;;;;;;;5093373;28;20171;-66
2022/01/27 09:26:37;;;;;;;30.67;17.08;;;;;;;;;;5093045;28;20174;-66
2022/01/27 09:28:56;;;;;;;29.50;16.98;;;;;;;;;;5092945;28;20227;-66
2022/01/27 09:31:22;;;;;;;29.50;16.80;;;;;;;;;;5093112;28;20525;-66
2022/01/27 09:33:48;;;;;;;27.67;15.97;;;;;;;;;;5093112;28;20405;-66
2022/01/27 09:36:14;;;;;;;26.75;16.33;;;;;;;;;;5093140;28;20416;-66
2022/01/27 09:38:40;;;;;;;30.70;16.67;;;;;;;;;;5093079;28;20173;-66
2022/01/27 09:41:08;;;;;;;37.75;19.58;;;;;;;;;;5093171;28;20522;-66
2022/01/27 09:43:35;;;;;;;27.20;15.60;;;;;;;;;;5093280;28;20186;-66
2022/01/27 09:46:05;;;;;;;26.52;16.92;;;;;;;;;;5093296;28;20175;-66
2022/01/27 09:48:37;;;;;;;24.00;16.25;;;;;;;;;;5092437;28;20164;-66
2022/01/27 09:53:49;;;;;;;29.77;17.33;;;;;;;;;;5093129;28;20254;-66
2022/01/27 09:56:15;;;;;;;27.10;15.65;;;;;;;;;;5096122;28;20171;-66
2022/01/27 09:58:41;;;;;;;28.60;16.75;;;;;;;;;;5096540;28;20531;-67
2022/01/27 10:01:07;;;;;;;30.02;16.80;;;;;;;;;;5096550;28;20214;-66
2022/01/27 10:03:33;;;;;;;30.27;16.35;;;;;;;;;;5096614;28;20163;-67
2022/01/27 10:06:13;;;;;;;35.63;17.20;;;;;;;;;;5096452;28;20159;-66
2022/01/27 10:08:41;;;;;;;30.70;17.13;;;;;;;;;;5096738;28;20163;-66
2022/01/27 10:11:19;;;;;;;36.50;18.67;;;;;;;;;;5096613;28;20202;-66
2022/01/27 10:13:47;;;;;;;35.00;18.13;;;;;;;;;;5096277;28;20268;-66
2022/01/27 10:16:36;;;;;;;36.88;18.95;;;;;;;;;;5096502;28;20163;-66
2022/01/27 10:19:05;;;;;;;32.03;17.77;;;;;;;;;;5096038;28;20618;-66
2022/01/27 10:21:32;;;;;;;40.05;20.45;;;;;;;;;;5096321;28;20178;-65
2022/01/27 10:24:13;;;;;;;38.35;18.50;;;;;;;;;;5096136;28;20250;-66
2022/01/27 10:26:43;;;;;;;31.27;19.10;;;;;;;;;;5096084;28;20167;-66
2022/01/27 10:29:15;;;;;;;34.72;18.40;;;;;;;;;;5096240;28;20171;-66
2022/01/27 10:31:42;;;;;;;34.05;17.67;;;;;;;;;;5096216;28;20163;-66
2022/01/27 10:34:10;;;;;;;35.67;18.67;;;;;;;;;;5095829;28;20155;-66
2022/01/27 10:36:40;;;;;;;33.85;17.80;;;;;;;;;;5094434;28;20179;-66
2022/01/27 10:39:08;;;;;;;31.60;17.55;;;;;;;;;;5096012;28;20198;-66
2022/01/27 10:41:36;;;;;;;31.10;18.60;;;;;;;;;;5096013;28;20170;-66
2022/01/27 10:44:13;;;;;;;30.38;16.73;;;;;;;;;;5095716;28;20670;-66
2022/01/27 10:46:59;;;;;;;30.23;18.20;;;;;;;;;;5095978;28;20167;-66
2022/01/27 10:49:29;;;;;;;34.67;18.60;;;;;;;;;;5095939;28;20220;-66
2022/01/27 10:51:56;;;;;;;29.45;16.67;;;;;;;;;;5095849;28;20628;-66
2022/01/27 10:54:36;;;;;;;32.00;17.50;;;;;;;;;;5095542;28;20168;-66
2022/01/27 10:57:06;;;;;;;30.90;17.40;;;;;;;;;;5095562;28;20543;-66
2022/01/27 10:59:33;;;;;;;26.65;16.42;;;;;;;;;;5095592;28;20202;-66
2022/01/27 11:01:59;;;;;;;30.30;16.90;;;;;;;;;;5095376;28;20692;-66
2022/01/27 11:04:33;;;;;;;27.25;16.33;;;;;;;;;;5095425;28;20216;-66
2022/01/27 11:07:01;;;;;;;33.05;17.25;;;;;;;;;;5094445;28;20533;-67
2022/01/27 11:09:27;;;;;;;33.17;17.40;;;;;;;;;;5095123;28;20167;-67
2022/01/27 11:11:55;;;;;;;26.85;16.60;;;;;;;;;;5095170;28;20191;-66
2022/01/27 11:14:25;;;;;;;28.50;17.08;;;;;;;;;;5093936;28;20175;-66
2022/01/27 11:16:55;;;;;;;30.52;18.17;;;;;;;;;;5095063;28;20189;-67
2022/01/27 11:22:09;;;;;;;32.10;17.48;;;;;;;;;;5095278;28;20257;-66
2022/01/27 11:25:09;;;;;;;29.45;16.30;;;;;;;;;;5094888;28;20177;-66
2022/01/27 11:27:36;;;;;;;27.17;16.30;;;;;;;;;;5094889;28;20164;-66
2022/01/27 11:30:08;;;;;;;45.67;19.15;;;;;;;;;;5094896;28;20174;-66
2022/01/27 11:32:36;;;;;;;30.63;17.20;;;;;;;;;;5094785;28;20171;-66
2022/01/27 11:35:15;;;;;;;32.47;18.00;;;;;;;;;;5095104;28;20171;-66
2022/01/27 11:37:41;;;;;;;28.05;18.00;;;;;;;;;;5094723;28;20171;-66
2022/01/27 11:40:09;;;;;;;26.58;15.82;;;;;;;;;;5094608;28;20707;-66
2022/01/27 11:42:35;;;;;;;32.70;17.92;;;;;;;;;;5094384;28;20171;-67
2022/01/27 11:45:19;;;;;;;27.67;15.10;;;;;;;;;;5093131;28;20186;-66
2022/01/27 11:47:49;;;;;;;28.08;16.30;;;;;;;;;;5094548;28;20927;-66
2022/01/27 11:50:31;;;;;;;26.45;16.45;;;;;;;;;;5093246;28;20657;-67
2022/01/27 11:52:57;;;;;;;27.80;16.05;;;;;;;;;;5094409;28;20210;-67
2022/01/27 11:55:26;;;;;;;29.85;17.45;;;;;;;;;;5094682;28;20278;-67
2022/01/27 11:57:53;;;;;;;29.40;17.50;;;;;;;;;;5094287;28;20175;-67
2022/01/27 12:00:20;;;;;;;33.50;19.38;;;;;;;;;;5094207;28;20207;-67
2022/01/27 12:03:01;;;;;;;35.13;19.10;;;;;;;;;;5094210;28;20673;-67
2022/01/27 12:05:39;;;;;;;34.53;18.15;;;;;;;;;;5094409;28;20220;-67
2022/01/27 12:08:18;;;;;;;40.00;20.48;;;;;;;;;;5093151;28;20568;-67
2022/01/27 12:10:49;;;;;;;32.50;19.27;;;;;;;;;;5094098;28;20568;-68
2022/01/27 12:16:37;;;;;;;37.65;19.23;;;;;;;;;;5085095;28;20186;-68
2022/01/27 12:19:11;;;;;;;33.83;19.65;;;;;;;;;;5093652;28;20238;-68
2022/01/27 12:21:38;;;;;;;26.38;17.80;;;;;;;;;;5093894;28;20155;-67
2022/01/27 12:24:14;;;;;;;32.22;18.92;;;;;;;;;;5093850;28;20155;-67
2022/01/27 12:26:47;;;;;;;33.15;18.10;;;;;;;;;;5092532;28;20177;-68
2022/01/27 12:29:21;;;;;;;27.23;18.60;;;;;;;;;;5093757;28;20163;-68
2022/01/27 12:31:47;;;;;;;29.17;18.08;;;;;;;;;;5093580;28;20172;-67
2022/01/27 12:34:13;;;;;;;28.93;18.30;;;;;;;;;;5093714;28;20159;-67
2022/01/27 12:36:39;;;;;;;34.23;18.73;;;;;;;;;;5093558;28;20783;-66
2022/01/27 12:39:05;;;;;;;31.65;17.38;;;;;;;;;;5093511;28;20555;-67
2022/01/27 12:41:38;;;;;;;32.35;16.38;;;;;;;;;;5093736;28;20497;-67
2022/01/27 12:44:10;;;;;;;29.05;18.90;;;;;;;;;;5093920;28;20167;-68
2022/01/27 12:46:36;;;;;;;32.05;18.75;;;;;;;;;;5093493;28;20646;-67
2022/01/27 12:49:03;;;;;;;33.83;19.08;;;;;;;;;;5093828;28;20554;-67
2022/01/27 12:51:46;;;;;;;30.55;18.73;;;;;;;;;;5093749;28;20206;-67
2022/01/27 12:54:14;;;;;;;32.08;18.88;;;;;;;;;;5093424;28;20171;-67
2022/01/27 12:56:40;;;;;;;28.85;19.40;;;;;;;;;;5093369;28;20174;-68
2022/01/27 12:59:13;;;;;;;30.88;18.90;;;;;;;;;;5093454;28;20167;-67
2022/01/27 13:01:39;;;;;;;30.73;19.20;;;;;;;;;;5093731;28;20261;-66
2022/01/27 13:04:05;;;;;;;30.83;18.00;;;;;;;;;;5093446;28;20245;-67
2022/01/27 13:06:31;;;;;;;30.63;18.40;;;;;;;;;;5092138;28;20425;-67
2022/01/27 13:09:13;;;;;;;26.73;17.80;;;;;;;;;;5093628;28;20451;-69
2022/01/27 13:11:40;;;;;;;32.72;18.98;;;;;;;;;;5093602;28;20177;-67
2022/01/27 13:14:07;;;;;;;30.77;19.30;;;;;;;;;;5093586;28;20255;-67
2022/01/27 13:16:40;;;;;;;30.50;18.38;;;;;;;;;;5093330;28;20190;-68
2022/01/27 13:19:17;;;;;;;36.00;20.20;;;;;;;;;;5093124;28;20268;-67
2022/01/27 13:21:48;;;;;;;29.23;17.70;;;;;;;;;;5093541;28;20175;-67
2022/01/27 13:24:17;;;;;;;31.33;18.50;;;;;;;;;;5093469;28;20191;-67
2022/01/27 13:26:45;;;;;;;33.42;18.15;;;;;;;;;;5093281;28;20191;-68
2022/01/27 13:29:14;;;;;;;31.55;18.65;;;;;;;;;;5093499;28;20524;-67
2022/01/27 13:31:41;;;;;;;27.60;18.23;;;;;;;;;;5097440;28;20171;-67
2022/01/27 13:34:07;;;;;;;35.25;19.55;;;;;;;;;;5097036;28;20619;-67
2022/01/27 13:36:37;;;;;;;34.17;19.13;;;;;;;;;;5097086;28;20167;-67
2022/01/27 13:41:33;;;;;;;33.58;20.02;;;;;;;;;;5097205;28;20179;-67
2022/01/27 13:44:02;;;;;;;33.95;21.05;;;;;;;;;;5097163;28;20202;-67
2022/01/27 13:46:36;;;;;;;35.42;21.50;;;;;;;;;;5097078;28;20182;-68
2022/01/27 13:49:27;;;;;;;34.63;21.00;;;;;;;;;;5096870;28;20191;-68
2022/01/27 13:52:00;;;;;;;33.47;19.65;;;;;;;;;;5089829;28;20555;-67
2022/01/27 13:54:32;;;;;;;33.65;20.83;;;;;;;;;;5096766;28;20266;-68
2022/01/27 13:57:09;;;;;;;27.83;17.83;;;;;;;;;;5096548;28;20179;-67
2022/01/27 13:59:48;;;;;;;32.25;19.05;;;;;;;;;;5096379;28;20205;-67
2022/01/27 14:02:15;;;;;;;34.05;19.27;;;;;;;;;;5096827;28;20249;-66
2022/01/27 14:04:45;;;;;;;27.00;17.95;;;;;;;;;;5096788;28;20171;-67
2022/01/27 14:07:11;;;;;;;36.58;18.42;;;;;;;;;;5096576;28;20534;-67
2022/01/27 14:09:41;;;;;;;33.07;18.20;;;;;;;;;;5096656;28;20171;-67
2022/01/27 14:12:07;;;;;;;31.95;19.08;;;;;;;;;;5096573;28;20945;-68
2022/01/27 14:14:47;;;;;;;31.23;19.02;;;;;;;;;;5096609;28;20174;-68
2022/01/27 14:17:19;;;;;;;30.08;19.30;;;;;;;;;;5096537;28;20516;-68
2022/01/27 14:19:45;;;;;;;30.63;17.98;;;;;;;;;;5096053;28;20231;-68
2022/01/27 14:22:17;;;;;;;35.45;16.95;;;;;;;;;;5096232;28;20179;-69
2022/01/27 14:25:07;;;;;;;27.50;17.35;;;;;;;;;;5096069;28;20702;-67
2022/01/27 14:27:35;;;;;;;29.05;18.55;;;;;;;;;;5096276;28;20183;-68
2022/01/27 14:30:01;;;;;;;21.75;14.10;;;;;;;;;;5095949;28;20250;-67
2022/01/27 14:32:27;;;;;;;23.93;15.83;;;;;;;;;;5095949;28;20198;-67
2022/01/27 14:34:53;;;;;;;25.55;16.00;;;;;;;;;;5095889;28;20446;-67
2022/01/27 14:37:18;;;;;;;20.03;13.80;;;;;;;;;;5095837;28;20542;-68
2022/01/27 14:39:46;;;;;;;20.77;14.50;;;;;;;;;;5095921;28;20472;-68
2022/01/27 14:42:13;;;;;;;26.25;15.38;;;;;;;;;;5094874;28;20404;-67
2022/01/27 14:44:39;;;;;;;21.85;14.80;;;;;;;;;;5095773;28;20182;-67
2022/01/27 14:47:06;;;;;;;19.20;13.03;;;;;;;;;;5095998;28;20171;-67
2022/01/27 14:49:36;;;;;;;21.38;13.90;;;;;;;;;;5095814;28;20760;-67
2022/01/27 14:52:04;;;;;;;25.42;14.55;;;;;;;;;;5095643;28;20244;-67
2022/01/27 14:54:30;;;;;;;23.20;14.35;;;;;;;;;;5095456;28;20618;-67
2022/01/27 14:56:57;;;;;;;22.67;15.10;;;;;;;;;;5095603;28;20175;-67
2022/01/27 14:59:24;;;;;;;20.33;14.27;;;;;;;;;;5095516;28;20276;-67
2022/01/27 15:01:50;;;;;;;24.00;15.20;;;;;;;;;;5095715;28;20498;-68
2022/01/27 15:04:16;;;;;;;26.57;18.90;;;;;;;;;;5095352;28;20170;-67
2022/01/27 15:06:42;;;;;;;20.80;14.90;;;;;;;;;;5095522;28;20766;-68
2022/01/27 15:09:08;;;;;;;19.67;13.20;;;;;;;;;;5095316;28;20446;-68
2022/01/27 15:11:35;;;;;;;20.40;14.33;;;;;;;;;;5095322;28;20163;-68
2022/01/27 15:18:48;;;;;;;27.25;15.73;;;;;;;;;;5095210;28;20389;-68
2022/01/27 15:19:36;;;;;;;26.70;16.15;;;;;;;;;;5094958;28;20234;-68
2022/01/27 15:22:03;;;;;;;19.85;13.25;;;;;;;;;;5095285;28;20160;-68
2022/01/27 15:24:29;;;;;;;21.70;14.70;;;;;;;;;;5095744;28;20164;-68